sensor_id;sensor_type;location;lat;lon;timestamp;pressure;altitude;pressure_sealevel;temperature;humidity
34073;BME280;20346;52.702;16.886;2024-02-21T00:02:11;101381.81;;;5.45;100.00
34073;BME280;20346;52.702;16.886;2024-02-21T00:04:43;101382.09;;;5.41;100.00
34073;BME280;20346;52.702;16.886;2024-02-21T00:07:08;101381.54;;;5.39;100.00
34073;BME280;20346;52.702;16.886;2024-02-21T00:09:34;101381.30;;;5.35;99.99
34073;BME280;20346;52.702;16.886;2024-02-21T00:12:00;101383.63;;;5.31;100.00
34073;BME280;20346;52.702;16.886;2024-02-21T00:14:26;101382.87;;;5.27;100.00
34073;BME280;20346;52.702;16.886;2024-02-21T00:16:52;101381.30;;;5.25;99.99
34073;BME280;20346;52.702;16.886;2024-02-21T00:19:20;101377.49;;;5.23;100.00
34073;BME280;20346;52.702;16.886;2024-02-21T00:21:46;101374.73;;;5.21;100.00
34073;BME280;20346;52.702;16.886;2024-02-21T00:24:11;101375.08;;;5.21;100.00
34073;BME280;20346;52.702;16.886;2024-02-21T00:26:39;101374.55;;;5.20;100.00
34073;BME280;20346;52.702;16.886;2024-02-21T00:29:05;101374.67;;;5.16;100.00
34073;BME280;20346;52.702;16.886;2024-02-21T00:31:30;101371.82;;;5.10;99.90
34073;BME280;20346;52.702;16.886;2024-02-21T00:33:56;101371.05;;;5.06;100.00
34073;BME280;20346;52.702;16.886;2024-02-21T00:36:21;101365.49;;;5.00;99.91
34073;BME280;20346;52.702;16.886;2024-02-21T00:38:47;101361.63;;;4.95;99.95
34073;BME280;20346;52.702;16.886;2024-02-21T00:41:12;101356.06;;;4.89;100.00
34073;BME280;20346;52.702;16.886;2024-02-21T00:43:38;101355.11;;;4.85;100.00
34073;BME280;20346;52.702;16.886;2024-02-21T00:46:05;101351.60;;;4.80;100.00
34073;BME280;20346;52.702;16.886;2024-02-21T00:48:31;101348.38;;;4.72;100.00
34073;BME280;20346;52.702;16.886;2024-02-21T00:50:57;101344.91;;;4.70;100.00
34073;BME280;20346;52.702;16.886;2024-02-21T00:53:27;101340.78;;;4.68;100.00
34073;BME280;20346;52.702;16.886;2024-02-21T00:55:52;101344.19;;;4.66;99.87
34073;BME280;20346;52.702;16.886;2024-02-21T00:58:22;101337.96;;;4.63;99.95
34073;BME280;20346;52.702;16.886;2024-02-21T01:00:48;101338.17;;;4.64;100.00
34073;BME280;20346;52.702;16.886;2024-02-21T01:03:14;101333.72;;;4.63;100.00
34073;BME280;20346;52.702;16.886;2024-02-21T01:05:39;101332.41;;;4.58;100.00
34073;BME280;20346;52.702;16.886;2024-02-21T01:08:05;101326.89;;;4.55;100.00
34073;BME280;20346;52.702;16.886;2024-02-21T01:10:31;101322.45;;;4.55;100.00
34073;BME280;20346;52.702;16.886;2024-02-21T01:12:56;101317.14;;;4.54;100.00
34073;BME280;20346;52.702;16.886;2024-02-21T01:15:22;101316.77;;;4.52;100.00
34073;BME280;20346;52.702;16.886;2024-02-21T01:17:47;101313.38;;;4.54;100.00
34073;BME280;20346;52.702;16.886;2024-02-21T01:20:13;101314.09;;;4.55;100.00
34073;BME280;20346;52.702;16.886;2024-02-21T01:22:38;101308.69;;;4.58;100.00
34073;BME280;20346;52.702;16.886;2024-02-21T01:25:04;101305.97;;;4.59;100.00
34073;BME280;20346;52.702;16.886;2024-02-21T01:27:30;101303.48;;;4.63;100.00
34073;BME280;20346;52.702;16.886;2024-02-21T01:29:56;101303.52;;;4.65;100.00
34073;BME280;20346;52.702;16.886;2024-02-21T01:32:22;101298.77;;;4.68;100.00
34073;BME280;20346;52.702;16.886;2024-02-21T01:34:50;101298.84;;;4.72;100.00
34073;BME280;20346;52.702;16.886;2024-02-21T01:37:19;101302.18;;;4.77;100.00
34073;BME280;20346;52.702;16.886;2024-02-21T01:39:44;101302.27;;;4.82;100.00
34073;BME280;20346;52.702;16.886;2024-02-21T01:42:10;101299.22;;;4.83;100.00
34073;BME280;20346;52.702;16.886;2024-02-21T01:44:35;101302.35;;;4.85;100.00
34073;BME280;20346;52.702;16.886;2024-02-21T01:47:03;101302.71;;;4.87;100.00
34073;BME280;20346;52.702;16.886;2024-02-21T01:49:29;101297.46;;;4.90;100.00
34073;BME280;20346;52.702;16.886;2024-02-21T01:51:55;101293.77;;;4.94;100.00
34073;BME280;20346;52.702;16.886;2024-02-21T01:54:21;101292.45;;;4.96;100.00
34073;BME280;20346;52.702;16.886;2024-02-21T01:56:47;101293.17;;;4.98;100.00
34073;BME280;20346;52.702;16.886;2024-02-21T01:59:15;101289.30;;;5.02;100.00
34073;BME280;20346;52.702;16.886;2024-02-21T02:01:41;101286.63;;;5.05;100.00
34073;BME280;20346;52.702;16.886;2024-02-21T02:04:07;101285.99;;;5.08;100.00
34073;BME280;20346;52.702;16.886;2024-02-21T02:06:34;101284.48;;;5.09;100.00
34073;BME280;20346;52.702;16.886;2024-02-21T02:09:00;101280.77;;;5.12;100.00
34073;BME280;20346;52.702;16.886;2024-02-21T02:11:25;101281.64;;;5.13;100.00
34073;BME280;20346;52.702;16.886;2024-02-21T02:13:51;101278.25;;;5.14;100.00
34073;BME280;20346;52.702;16.886;2024-02-21T02:16:16;101274.34;;;5.15;100.00
34073;BME280;20346;52.702;16.886;2024-02-21T02:18:42;101274.21;;;5.19;100.00
34073;BME280;20346;52.702;16.886;2024-02-21T02:21:15;101271.33;;;5.21;100.00
34073;BME280;20346;52.702;16.886;2024-02-21T02:23:47;101271.34;;;5.22;100.00
34073;BME280;20346;52.702;16.886;2024-02-21T02:26:12;101265.71;;;5.23;100.00
34073;BME280;20346;52.702;16.886;2024-02-21T02:28:38;101262.47;;;5.23;100.00
34073;BME280;20346;52.702;16.886;2024-02-21T02:31:03;101259.60;;;5.25;100.00
34073;BME280;20346;52.702;16.886;2024-02-21T02:33:29;101256.38;;;5.27;100.00
34073;BME280;20346;52.702;16.886;2024-02-21T02:35:54;101252.95;;;5.26;100.00
34073;BME280;20346;52.702;16.886;2024-02-21T02:38:20;101249.03;;;5.27;100.00
34073;BME280;20346;52.702;16.886;2024-02-21T02:40:45;101245.11;;;5.28;100.00
34073;BME280;20346;52.702;16.886;2024-02-21T02:43:10;101244.63;;;5.29;100.00
34073;BME280;20346;52.702;16.886;2024-02-21T02:45:36;101246.33;;;5.29;100.00
34073;BME280;20346;52.702;16.886;2024-02-21T02:48:02;101245.66;;;5.30;100.00
34073;BME280;20346;52.702;16.886;2024-02-21T02:50:28;101239.88;;;5.32;100.00
34073;BME280;20346;52.702;16.886;2024-02-21T02:52:54;101234.75;;;5.32;100.00
34073;BME280;20346;52.702;16.886;2024-02-21T02:55:20;101230.13;;;5.31;100.00
34073;BME280;20346;52.702;16.886;2024-02-21T02:57:46;101227.75;;;5.33;100.00
34073;BME280;20346;52.702;16.886;2024-02-21T03:00:12;101227.63;;;5.36;100.00
34073;BME280;20346;52.702;16.886;2024-02-21T03:02:39;101220.98;;;5.38;100.00
34073;BME280;20346;52.702;16.886;2024-02-21T03:05:14;101222.34;;;5.37;100.00
34073;BME280;20346;52.702;16.886;2024-02-21T03:07:40;101216.88;;;5.37;100.00
34073;BME280;20346;52.702;16.886;2024-02-21T03:10:07;101214.64;;;5.36;100.00
34073;BME280;20346;52.702;16.886;2024-02-21T03:12:33;101213.45;;;5.37;100.00
34073;BME280;20346;52.702;16.886;2024-02-21T03:14:58;101213.14;;;5.38;100.00
34073;BME280;20346;52.702;16.886;2024-02-21T03:17:25;101210.92;;;5.39;100.00
34073;BME280;20346;52.702;16.886;2024-02-21T03:19:52;101207.21;;;5.43;100.00
34073;BME280;20346;52.702;16.886;2024-02-21T03:22:18;101210.14;;;5.44;100.00
34073;BME280;20346;52.702;16.886;2024-02-21T03:24:44;101209.81;;;5.45;100.00
34073;BME280;20346;52.702;16.886;2024-02-21T03:27:10;101205.36;;;5.45;100.00
34073;BME280;20346;52.702;16.886;2024-02-21T03:29:35;101205.04;;;5.46;100.00
34073;BME280;20346;52.702;16.886;2024-02-21T03:32:01;101201.08;;;5.44;100.00
34073;BME280;20346;52.702;16.886;2024-02-21T03:34:26;101200.61;;;5.47;100.00
34073;BME280;20346;52.702;16.886;2024-02-21T03:36:51;101199.73;;;5.46;100.00
34073;BME280;20346;52.702;16.886;2024-02-21T03:39:17;101196.67;;;5.47;100.00
34073;BME280;20346;52.702;16.886;2024-02-21T03:41:42;101194.48;;;5.48;100.00
34073;BME280;20346;52.702;16.886;2024-02-21T03:44:09;101189.00;;;5.48;100.00
34073;BME280;20346;52.702;16.886;2024-02-21T03:46:34;101182.98;;;5.46;100.00
34073;BME280;20346;52.702;16.886;2024-02-21T03:49:00;101184.87;;;5.47;100.00
34073;BME280;20346;52.702;16.886;2024-02-21T03:51:26;101178.23;;;5.49;100.00
34073;BME280;20346;52.702;16.886;2024-02-21T03:53:51;101174.14;;;5.49;100.00
34073;BME280;20346;52.702;16.886;2024-02-21T03:56:17;101172.23;;;5.48;100.00
34073;BME280;20346;52.702;16.886;2024-02-21T03:58:43;101174.79;;;5.47;100.00
34073;BME280;20346;52.702;16.886;2024-02-21T04:01:08;101174.31;;;5.50;100.00
34073;BME280;20346;52.702;16.886;2024-02-21T04:03:34;101175.70;;;5.51;100.00
34073;BME280;20346;52.702;16.886;2024-02-21T04:05:59;101174.32;;;5.50;100.00
34073;BME280;20346;52.702;16.886;2024-02-21T04:08:25;101175.00;;;5.50;100.00
34073;BME280;20346;52.702;16.886;2024-02-21T04:10:51;101173.48;;;5.51;100.00
34073;BME280;20346;52.702;16.886;2024-02-21T04:13:16;101171.45;;;5.52;100.00
34073;BME280;20346;52.702;16.886;2024-02-21T04:15:42;101163.75;;;5.53;100.00
34073;BME280;20346;52.702;16.886;2024-02-21T04:18:08;101163.92;;;5.53;100.00
34073;BME280;20346;52.702;16.886;2024-02-21T04:20:34;101157.44;;;5.53;100.00
34073;BME280;20346;52.702;16.886;2024-02-21T04:23:00;101154.54;;;5.54;100.00
34073;BME280;20346;52.702;16.886;2024-02-21T04:25:25;101154.23;;;5.56;100.00
34073;BME280;20346;52.702;16.886;2024-02-21T04:27:51;101148.05;;;5.55;100.00
34073;BME280;20346;52.702;16.886;2024-02-21T04:30:17;101145.69;;;5.58;100.00
34073;BME280;20346;52.702;16.886;2024-02-21T04:32:42;101147.05;;;5.57;100.00
34073;BME280;20346;52.702;16.886;2024-02-21T04:35:08;101145.84;;;5.56;100.00
34073;BME280;20346;52.702;16.886;2024-02-21T04:37:34;101147.89;;;5.56;100.00
34073;BME280;20346;52.702;16.886;2024-02-21T04:39:59;101143.28;;;5.56;100.00
34073;BME280;20346;52.702;16.886;2024-02-21T04:42:25;101144.65;;;5.56;100.00
34073;BME280;20346;52.702;16.886;2024-02-21T04:44:50;101138.86;;;5.58;100.00
34073;BME280;20346;52.702;16.886;2024-02-21T04:47:16;101133.75;;;5.59;100.00
34073;BME280;20346;52.702;16.886;2024-02-21T04:49:42;101131.86;;;5.59;100.00
34073;BME280;20346;52.702;16.886;2024-02-21T04:52:07;101128.61;;;5.59;100.00
34073;BME280;20346;52.702;16.886;2024-02-21T04:54:33;101124.49;;;5.58;100.00
34073;BME280;20346;52.702;16.886;2024-02-21T04:57:00;101119.40;;;5.61;100.00
34073;BME280;20346;52.702;16.886;2024-02-21T04:59:26;101118.01;;;5.59;100.00
34073;BME280;20346;52.702;16.886;2024-02-21T05:01:52;101118.84;;;5.57;100.00
34073;BME280;20346;52.702;16.886;2024-02-21T05:04:17;101115.27;;;5.58;100.00
34073;BME280;20346;52.702;16.886;2024-02-21T05:06:43;101113.92;;;5.60;100.00
34073;BME280;20346;52.702;16.886;2024-02-21T05:09:09;101110.14;;;5.59;100.00
34073;BME280;20346;52.702;16.886;2024-02-21T05:11:35;101104.81;;;5.57;100.00
34073;BME280;20346;52.702;16.886;2024-02-21T05:14:01;101101.06;;;5.58;100.00
34073;BME280;20346;52.702;16.886;2024-02-21T05:16:27;101101.23;;;5.57;100.00
34073;BME280;20346;52.702;16.886;2024-02-21T05:18:53;101099.70;;;5.58;100.00
34073;BME280;20346;52.702;16.886;2024-02-21T05:21:18;101098.15;;;5.58;100.00
34073;BME280;20346;52.702;16.886;2024-02-21T05:23:44;101098.48;;;5.57;100.00
34073;BME280;20346;52.702;16.886;2024-02-21T05:26:10;101090.29;;;5.57;100.00
34073;BME280;20346;52.702;16.886;2024-02-21T05:28:35;101089.61;;;5.59;100.00
34073;BME280;20346;52.702;16.886;2024-02-21T05:31:01;101080.19;;;5.56;100.00
34073;BME280;20346;52.702;16.886;2024-02-21T05:33:26;101076.58;;;5.54;100.00
34073;BME280;20346;52.702;16.886;2024-02-21T05:35:52;101072.83;;;5.56;100.00
34073;BME280;20346;52.702;16.886;2024-02-21T05:38:18;101070.58;;;5.54;100.00
34073;BME280;20346;52.702;16.886;2024-02-21T05:40:46;101069.75;;;5.56;100.00
34073;BME280;20346;52.702;16.886;2024-02-21T05:43:13;101069.23;;;5.56;100.00
34073;BME280;20346;52.702;16.886;2024-02-21T05:45:39;101068.04;;;5.56;100.00
34073;BME280;20346;52.702;16.886;2024-02-21T05:48:04;101066.52;;;5.57;100.00
34073;BME280;20346;52.702;16.886;2024-02-21T05:50:30;101068.89;;;5.56;100.00
34073;BME280;20346;52.702;16.886;2024-02-21T05:52:56;101069.91;;;5.56;100.00
34073;BME280;20346;52.702;16.886;2024-02-21T05:55:22;101068.75;;;5.58;100.00
34073;BME280;20346;52.702;16.886;2024-02-21T05:57:48;101072.67;;;5.58;100.00
34073;BME280;20346;52.702;16.886;2024-02-21T06:00:15;101069.95;;;5.58;100.00
34073;BME280;20346;52.702;16.886;2024-02-21T06:02:41;101066.02;;;5.59;100.00
34073;BME280;20346;52.702;16.886;2024-02-21T06:05:08;101064.48;;;5.59;100.00
34073;BME280;20346;52.702;16.886;2024-02-21T06:07:34;101057.46;;;5.58;100.00
34073;BME280;20346;52.702;16.886;2024-02-21T06:10:01;101056.14;;;5.62;100.00
34073;BME280;20346;52.702;16.886;2024-02-21T06:12:27;101054.27;;;5.62;100.00
34073;BME280;20346;52.702;16.886;2024-02-21T06:14:52;101053.77;;;5.65;100.00
34073;BME280;20346;52.702;16.886;2024-02-21T06:17:18;101055.48;;;5.65;100.00
34073;BME280;20346;52.702;16.886;2024-02-21T06:19:43;101056.36;;;5.66;100.00
34073;BME280;20346;52.702;16.886;2024-02-21T06:22:10;101054.64;;;5.67;100.00
34073;BME280;20346;52.702;16.886;2024-02-21T06:24:35;101057.23;;;5.68;100.00
34073;BME280;20346;52.702;16.886;2024-02-21T06:27:03;101052.80;;;5.69;100.00
34073;BME280;20346;52.702;16.886;2024-02-21T06:29:29;101049.02;;;5.69;100.00
34073;BME280;20346;52.702;16.886;2024-02-21T06:31:54;101048.17;;;5.71;100.00
34073;BME280;20346;52.702;16.886;2024-02-21T06:34:20;101044.09;;;5.72;100.00
34073;BME280;20346;52.702;16.886;2024-02-21T06:36:45;101040.83;;;5.72;100.00
34073;BME280;20346;52.702;16.886;2024-02-21T06:39:11;101037.95;;;5.76;100.00
34073;BME280;20346;52.702;16.886;2024-02-21T06:41:37;101039.66;;;5.76;100.00
34073;BME280;20346;52.702;16.886;2024-02-21T06:44:02;101040.90;;;5.79;100.00
34073;BME280;20346;52.702;16.886;2024-02-21T06:46:29;101039.02;;;5.80;100.00
34073;BME280;20346;52.702;16.886;2024-02-21T06:48:55;101035.10;;;5.81;100.00
34073;BME280;20346;52.702;16.886;2024-02-21T06:51:24;101030.81;;;5.80;100.00
34073;BME280;20346;52.702;16.886;2024-02-21T06:53:52;101026.38;;;5.81;100.00
34073;BME280;20346;52.702;16.886;2024-02-21T06:56:18;101022.13;;;5.84;100.00
34073;BME280;20346;52.702;16.886;2024-02-21T06:58:43;101023.67;;;5.84;100.00
34073;BME280;20346;52.702;16.886;2024-02-21T07:01:10;101025.02;;;5.83;100.00
34073;BME280;20346;52.702;16.886;2024-02-21T07:03:36;101019.63;;;5.88;100.00
34073;BME280;20346;52.702;16.886;2024-02-21T07:06:02;101020.88;;;5.93;100.00
34073;BME280;20346;52.702;16.886;2024-02-21T07:08:27;101018.30;;;5.92;100.00
34073;BME280;20346;52.702;16.886;2024-02-21T07:10:53;101013.52;;;5.92;100.00
34073;BME280;20346;52.702;16.886;2024-02-21T07:13:18;101009.59;;;5.93;100.00
34073;BME280;20346;52.702;16.886;2024-02-21T07:15:44;101010.45;;;5.93;100.00
34073;BME280;20346;52.702;16.886;2024-02-21T07:18:10;101006.35;;;5.94;100.00
34073;BME280;20346;52.702;16.886;2024-02-21T07:20:35;101001.57;;;5.96;100.00
34073;BME280;20346;52.702;16.886;2024-02-21T07:23:04;101003.64;;;5.97;100.00
34073;BME280;20346;52.702;16.886;2024-02-21T07:25:29;100998.85;;;5.97;100.00
34073;BME280;20346;52.702;16.886;2024-02-21T07:27:55;100996.98;;;5.99;100.00
34073;BME280;20346;52.702;16.886;2024-02-21T07:30:21;100996.64;;;5.99;100.00
34073;BME280;20346;52.702;16.886;2024-02-21T07:32:49;100994.11;;;6.03;100.00
34073;BME280;20346;52.702;16.886;2024-02-21T07:35:15;100990.84;;;6.01;100.00
34073;BME280;20346;52.702;16.886;2024-02-21T07:37:41;100998.53;;;6.01;100.00
34073;BME280;20346;52.702;16.886;2024-02-21T07:40:12;101009.85;;;6.03;100.00
34073;BME280;20346;52.702;16.886;2024-02-21T07:42:38;101008.66;;;6.03;100.00
34073;BME280;20346;52.702;16.886;2024-02-21T07:45:04;101005.27;;;6.07;100.00
34073;BME280;20346;52.702;16.886;2024-02-21T07:47:29;101001.17;;;6.09;100.00
34073;BME280;20346;52.702;16.886;2024-02-21T07:49:55;101004.65;;;6.15;100.00
34073;BME280;20346;52.702;16.886;2024-02-21T07:52:20;101003.15;;;6.20;100.00
34073;BME280;20346;52.702;16.886;2024-02-21T07:54:46;101010.52;;;6.25;100.00
34073;BME280;20346;52.702;16.886;2024-02-21T07:57:11;101016.73;;;6.30;100.00
34073;BME280;20346;52.702;16.886;2024-02-21T07:59:37;101014.52;;;6.33;100.00
34073;BME280;20346;52.702;16.886;2024-02-21T08:02:02;101011.11;;;6.35;100.00
34073;BME280;20346;52.702;16.886;2024-02-21T08:04:32;101004.80;;;6.39;100.00
34073;BME280;20346;52.702;16.886;2024-02-21T08:06:57;101006.90;;;6.44;100.00
34073;BME280;20346;52.702;16.886;2024-02-21T08:09:26;101010.88;;;6.49;100.00
34073;BME280;20346;52.702;16.886;2024-02-21T08:11:52;101008.48;;;6.50;100.00
34073;BME280;20346;52.702;16.886;2024-02-21T08:14:17;101000.30;;;6.53;100.00
34073;BME280;20346;52.702;16.886;2024-02-21T08:16:43;100992.09;;;6.55;100.00
34073;BME280;20346;52.702;16.886;2024-02-21T08:19:10;100990.38;;;6.56;100.00
34073;BME280;20346;52.702;16.886;2024-02-21T08:21:35;100992.11;;;6.60;100.00
34073;BME280;20346;52.702;16.886;2024-02-21T08:24:01;100986.11;;;6.57;100.00
34073;BME280;20346;52.702;16.886;2024-02-21T08:26:26;100982.16;;;6.57;100.00
34073;BME280;20346;52.702;16.886;2024-02-21T08:28:55;100979.41;;;6.55;100.00
34073;BME280;20346;52.702;16.886;2024-02-21T08:31:24;100984.88;;;6.54;100.00
34073;BME280;20346;52.702;16.886;2024-02-21T08:34:00;100979.38;;;6.51;100.00
34073;BME280;20346;52.702;16.886;2024-02-21T08:36:38;100974.59;;;6.51;100.00
34073;BME280;20346;52.702;16.886;2024-02-21T08:39:03;100969.61;;;6.51;100.00
34073;BME280;20346;52.702;16.886;2024-02-21T08:41:34;100969.61;;;6.51;100.00
34073;BME280;20346;52.702;16.886;2024-02-21T08:44:02;100965.34;;;6.50;100.00
34073;BME280;20346;52.702;16.886;2024-02-21T08:46:28;100972.52;;;6.51;100.00
34073;BME280;20346;52.702;16.886;2024-02-21T08:48:54;100963.27;;;6.52;100.00
34073;BME280;20346;52.702;16.886;2024-02-21T08:51:20;100961.39;;;6.51;100.00
34073;BME280;20346;52.702;16.886;2024-02-21T08:53:46;100952.84;;;6.51;100.00
34073;BME280;20346;52.702;16.886;2024-02-21T08:56:12;100952.15;;;6.51;100.00
34073;BME280;20346;52.702;16.886;2024-02-21T08:58:39;100951.82;;;6.54;100.00
34073;BME280;20346;52.702;16.886;2024-02-21T09:01:06;100954.75;;;6.56;100.00
34073;BME280;20346;52.702;16.886;2024-02-21T09:03:36;100950.64;;;6.56;100.00
34073;BME280;20346;52.702;16.886;2024-02-21T09:06:01;100950.13;;;6.56;100.00
34073;BME280;20346;52.702;16.886;2024-02-21T09:08:27;100951.85;;;6.59;100.00
34073;BME280;20346;52.702;16.886;2024-02-21T09:10:53;100950.48;;;6.60;100.00
34073;BME280;20346;52.702;16.886;2024-02-21T09:13:18;100950.66;;;6.60;100.00
34073;BME280;20346;52.702;16.886;2024-02-21T09:15:44;100945.88;;;6.63;100.00
34073;BME280;20346;52.702;16.886;2024-02-21T09:18:10;100944.70;;;6.65;100.00
34073;BME280;20346;52.702;16.886;2024-02-21T09:20:35;100944.35;;;6.66;100.00
34073;BME280;20346;52.702;16.886;2024-02-21T09:23:01;100951.03;;;6.65;100.00
34073;BME280;20346;52.702;16.886;2024-02-21T09:25:27;100945.20;;;6.62;100.00
34073;BME280;20346;52.702;16.886;2024-02-21T09:27:53;100948.94;;;6.60;100.00
34073;BME280;20346;52.702;16.886;2024-02-21T09:30:19;100941.75;;;6.60;100.00
34073;BME280;20346;52.702;16.886;2024-02-21T09:32:45;100942.44;;;6.59;100.00
34073;BME280;20346;52.702;16.886;2024-02-21T09:35:10;100943.64;;;6.59;100.00
34073;BME280;20346;52.702;16.886;2024-02-21T09:37:37;100939.88;;;6.61;100.00
34073;BME280;20346;52.702;16.886;2024-02-21T09:40:04;100934.55;;;6.60;100.00
34073;BME280;20346;52.702;16.886;2024-02-21T09:42:40;100930.80;;;6.62;100.00
34073;BME280;20346;52.702;16.886;2024-02-21T09:45:22;100935.95;;;6.65;100.00
34073;BME280;20346;52.702;16.886;2024-02-21T09:48:11;100945.58;;;6.70;100.00
34073;BME280;20346;52.702;16.886;2024-02-21T09:50:40;100946.45;;;6.72;100.00
34073;BME280;20346;52.702;16.886;2024-02-21T09:53:14;100944.91;;;6.74;100.00
34073;BME280;20346;52.702;16.886;2024-02-21T09:55:40;100946.97;;;6.75;100.00
34073;BME280;20346;52.702;16.886;2024-02-21T09:58:07;100943.20;;;6.75;100.00
34073;BME280;20346;52.702;16.886;2024-02-21T10:00:42;100944.05;;;6.74;100.00
34073;BME280;20346;52.702;16.886;2024-02-21T10:03:08;100942.52;;;6.73;100.00
34073;BME280;20346;52.702;16.886;2024-02-21T10:05:37;100945.07;;;6.72;100.00
34073;BME280;20346;52.702;16.886;2024-02-21T10:08:04;100944.91;;;6.74;100.00
34073;BME280;20346;52.702;16.886;2024-02-21T10:10:29;100943.37;;;6.75;100.00
34073;BME280;20346;52.702;16.886;2024-02-21T10:12:56;100938.74;;;6.76;100.00
34073;BME280;20346;52.702;16.886;2024-02-21T10:15:23;100932.58;;;6.82;100.00
34073;BME280;20346;52.702;16.886;2024-02-21T10:18:00;100925.25;;;6.90;100.00
34073;BME280;20346;52.702;16.886;2024-02-21T10:20:26;100927.16;;;6.98;100.00
34073;BME280;20346;52.702;16.886;2024-02-21T10:23:01;100927.17;;;7.00;100.00
34073;BME280;20346;52.702;16.886;2024-02-21T10:25:28;100924.80;;;7.06;100.00
34073;BME280;20346;52.702;16.886;2024-02-21T10:27:54;100924.46;;;7.09;100.00
34073;BME280;20346;52.702;16.886;2024-02-21T10:30:20;100917.27;;;7.10;100.00
34073;BME280;20346;52.702;16.886;2024-02-21T10:32:53;100909.90;;;7.10;100.00
34073;BME280;20346;52.702;16.886;2024-02-21T10:35:32;100907.67;;;7.11;100.00
34073;BME280;20346;52.702;16.886;2024-02-21T10:37:59;100904.27;;;7.14;100.00
34073;BME280;20346;52.702;16.886;2024-02-21T10:40:28;100902.02;;;7.16;100.00
34073;BME280;20346;52.702;16.886;2024-02-21T10:42:59;100902.04;;;7.18;100.00
34073;BME280;20346;52.702;16.886;2024-02-21T10:45:29;100902.05;;;7.22;100.00
34073;BME280;20346;52.702;16.886;2024-02-21T10:48:10;100904.79;;;7.27;100.00
34073;BME280;20346;52.702;16.886;2024-02-21T10:50:51;100900.66;;;7.31;100.00
34073;BME280;20346;52.702;16.886;2024-02-21T10:58:52;100885.59;;;7.38;100.00
34073;BME280;20346;52.702;16.886;2024-02-21T11:01:18;100880.27;;;7.37;100.00
34073;BME280;20346;52.702;16.886;2024-02-21T11:03:45;100875.80;;;7.29;100.00
34073;BME280;20346;52.702;16.886;2024-02-21T11:06:12;100871.02;;;7.25;100.00
34073;BME280;20346;52.702;16.886;2024-02-21T11:08:38;100866.73;;;7.23;100.00
34073;BME280;20346;52.702;16.886;2024-02-21T11:11:05;100860.38;;;7.26;100.00
34073;BME280;20346;52.702;16.886;2024-02-21T11:13:37;100854.88;;;7.27;100.00
34073;BME280;20346;52.702;16.886;2024-02-21T11:16:11;100849.57;;;7.28;100.00
34073;BME280;20346;52.702;16.886;2024-02-21T11:18:37;100846.13;;;7.31;100.00
34073;BME280;20346;52.702;16.886;2024-02-21T11:21:03;100842.02;;;7.34;100.00
34073;BME280;20346;52.702;16.886;2024-02-21T11:23:32;100837.05;;;7.37;100.00
34073;BME280;20346;52.702;16.886;2024-02-21T11:26:06;100828.98;;;7.40;100.00
34073;BME280;20346;52.702;16.886;2024-02-21T11:28:32;100824.02;;;7.45;100.00
34073;BME280;20346;52.702;16.886;2024-02-21T11:31:20;100818.88;;;7.48;100.00
34073;BME280;20346;52.702;16.886;2024-02-21T11:33:47;100819.21;;;7.52;100.00
34073;BME280;20346;52.702;16.886;2024-02-21T11:36:24;100822.30;;;7.54;100.00
34073;BME280;20346;52.702;16.886;2024-02-21T11:38:51;100816.81;;;7.58;100.00
34073;BME280;20346;52.702;16.886;2024-02-21T11:41:17;100817.15;;;7.60;100.00
34073;BME280;20346;52.702;16.886;2024-02-21T11:43:42;100819.04;;;7.65;100.00
34073;BME280;20346;52.702;16.886;2024-02-21T11:46:08;100808.58;;;7.67;100.00
34073;BME280;20346;52.702;16.886;2024-02-21T11:48:34;100804.79;;;7.72;100.00
34073;BME280;20346;52.702;16.886;2024-02-21T11:51:00;100801.70;;;7.73;100.00
34073;BME280;20346;52.702;16.886;2024-02-21T11:53:26;100794.33;;;7.74;100.00
34073;BME280;20346;52.702;16.886;2024-02-21T11:55:56;100794.83;;;7.78;100.00
34073;BME280;20346;52.702;16.886;2024-02-21T11:58:22;100791.90;;;7.79;100.00
34073;BME280;20346;52.702;16.886;2024-02-21T12:00:48;100793.59;;;7.83;100.00
34073;BME280;20346;52.702;16.886;2024-02-21T12:03:14;100793.75;;;7.85;100.00
34073;BME280;20346;52.702;16.886;2024-02-21T12:05:43;100790.84;;;7.85;100.00
34073;BME280;20346;52.702;16.886;2024-02-21T12:08:09;100794.10;;;7.85;100.00
34073;BME280;20346;52.702;16.886;2024-02-21T12:10:35;100793.59;;;7.86;100.00
34073;BME280;20346;52.702;16.886;2024-02-21T12:13:10;100792.73;;;7.88;100.00
34073;BME280;20346;52.702;16.886;2024-02-21T12:15:38;100786.20;;;7.87;100.00
34073;BME280;20346;52.702;16.886;2024-02-21T12:18:05;100786.54;;;7.88;100.00
34073;BME280;20346;52.702;16.886;2024-02-21T12:20:30;100784.98;;;7.93;100.00
34073;BME280;20346;52.702;16.886;2024-02-21T12:23:00;100784.64;;;7.95;100.00
34073;BME280;20346;52.702;16.886;2024-02-21T12:25:26;100786.19;;;7.96;100.00
34073;BME280;20346;52.702;16.886;2024-02-21T12:27:52;100783.95;;;7.93;100.00
34073;BME280;20346;52.702;16.886;2024-02-21T12:30:18;100778.63;;;7.94;100.00
34073;BME280;20346;52.702;16.886;2024-02-21T12:32:45;100780.01;;;7.97;100.00
34073;BME280;20346;52.702;16.886;2024-02-21T12:35:10;100778.11;;;8.01;100.00
34073;BME280;20346;52.702;16.886;2024-02-21T12:37:36;100779.11;;;8.07;100.00
34073;BME280;20346;52.702;16.886;2024-02-21T12:40:05;100778.42;;;8.11;100.00
34073;BME280;20346;52.702;16.886;2024-02-21T12:42:32;100777.04;;;8.11;100.00
34073;BME280;20346;52.702;16.886;2024-02-21T12:44:59;100773.79;;;8.10;100.00